createdAt,value
2023-01-10T00:00:07.265Z,73.50
2023-01-10T00:02:29.037Z,71.57
2023-01-10T00:04:31.432Z,73.20
2023-01-10T00:06:33.222Z,71.55
2023-01-10T00:08:35.231Z,71.67
2023-01-10T00:10:36.971Z,73.90
2023-01-10T00:12:57.550Z,77.57
2023-01-10T00:14:59.632Z,78.07
2023-01-10T00:17:02.157Z,76.72
2023-01-10T00:19:04.177Z,75.65
2023-01-10T00:21:09.513Z,73.25
2023-01-10T00:23:12.047Z,77.28
2023-01-10T00:25:14.230Z,72.20
2023-01-10T00:27:21.475Z,79.05
2023-01-10T00:29:26.014Z,74.47
2023-01-10T00:31:28.128Z,76.70
2023-01-10T00:33:32.053Z,77.60
2023-01-10T00:35:34.299Z,77.55
2023-01-10T00:37:36.000Z,74.85
2023-01-10T00:39:38.136Z,79.03
2023-01-10T00:41:58.793Z,82.63
2023-01-10T00:44:00.801Z,71.40
2023-01-10T00:46:05.659Z,74.82
2023-01-10T00:48:07.744Z,78.00
2023-01-10T00:50:10.371Z,76.32
2023-01-10T00:52:13.017Z,78.32
2023-01-10T00:54:15.124Z,73.32
2023-01-10T00:56:17.269Z,77.23
2023-01-10T00:58:18.981Z,76.75
2023-01-10T01:00:21.196Z,74.83
2023-01-10T01:02:22.993Z,74.72
2023-01-10T01:04:25.306Z,77.68
2023-01-10T01:06:27.145Z,71.82
2023-01-10T01:08:29.240Z,77.68
2023-01-10T01:10:31.222Z,74.70
2023-01-10T01:12:33.065Z,78.75
2023-01-10T01:14:35.302Z,82.18
2023-01-10T01:16:36.968Z,81.80
2023-01-10T01:18:39.014Z,76.53
2023-01-10T01:20:41.477Z,81.10
2023-01-10T01:22:43.636Z,83.00
2023-01-10T01:24:45.363Z,83.90
2023-01-10T01:26:47.567Z,82.67
2023-01-10T01:28:49.303Z,82.50
2023-01-10T01:30:51.497Z,83.40
2023-01-10T01:32:53.548Z,90.03
2023-01-10T01:34:55.771Z,85.18
2023-01-10T01:36:58.276Z,79.63
2023-01-10T01:39:00.411Z,83.03
2023-01-10T01:41:02.122Z,87.13
2023-01-10T01:43:04.200Z,90.70
2023-01-10T01:45:08.919Z,86.63
2023-01-10T01:47:26.793Z,93.75
2023-01-10T01:49:29.124Z,85.95
2023-01-10T01:51:31.101Z,82.00
2023-01-10T01:53:33.235Z,93.20
2023-01-10T01:55:35.542Z,84.20
2023-01-10T01:57:37.827Z,88.75
2023-01-10T01:59:42.105Z,82.10
2023-01-10T02:01:46.694Z,87.40
2023-01-10T02:03:50.381Z,84.00
2023-01-10T02:05:52.447Z,89.35
2023-01-10T02:07:55.525Z,89.00
2023-01-10T02:10:03.007Z,92.63
2023-01-10T02:12:05.347Z,92.80
2023-01-10T02:14:08.039Z,96.95
2023-01-10T02:18:12.033Z,98.03
2023-01-10T02:20:14.844Z,93.05
2023-01-10T02:22:28.216Z,98.22
2023-01-10T02:24:41.893Z,87.10
2023-01-10T02:26:59.103Z,98.22
2023-01-10T02:29:12.746Z,94.60
2023-01-10T02:31:14.904Z,94.85
2023-01-10T02:33:20.605Z,99.28
2023-01-10T02:35:39.918Z,95.30
2023-01-10T02:37:51.242Z,94.25
2023-01-10T02:40:03.764Z,99.47
2023-01-10T02:42:14.207Z,100.80
2023-01-10T02:44:18.158Z,98.78
2023-01-10T02:46:25.448Z,98.72
2023-01-10T02:48:27.344Z,92.75
2023-01-10T02:50:41.567Z,94.90
2023-01-10T02:52:43.323Z,91.88
2023-01-10T02:54:45.453Z,95.30
2023-01-10T02:57:06.210Z,97.65
2023-01-10T02:59:34.915Z,95.05
2023-01-10T03:01:42.130Z,87.75
2023-01-10T03:03:50.807Z,95.93
2023-01-10T03:06:07.782Z,87.85
2023-01-10T03:08:12.874Z,95.82
2023-01-10T03:10:16.661Z,92.13
2023-01-10T03:12:31.807Z,87.95
2023-01-10T03:14:34.146Z,88.13
2023-01-10T03:16:36.964Z,85.80
2023-01-10T03:18:48.660Z,92.68
2023-01-10T03:20:51.718Z,93.55
2023-01-10T03:22:55.729Z,84.93
2023-01-10T03:24:58.935Z,88.28
2023-01-10T03:27:09.224Z,92.63
2023-01-10T03:29:11.775Z,90.25
2023-01-10T03:31:15.923Z,88.25
2023-01-10T03:33:19.279Z,88.47
2023-01-10T03:35:22.395Z,84.55
2023-01-10T03:37:46.296Z,90.68
2023-01-10T03:40:08.582Z,92.55
2023-01-10T03:42:18.609Z,96.97
2023-01-10T03:44:43.466Z,86.18
2023-01-10T03:47:00.134Z,86.85
2023-01-10T03:49:03.834Z,83.80
2023-01-10T03:51:07.165Z,89.45
2023-01-10T03:53:10.813Z,93.18
2023-01-10T03:55:14.340Z,93.65
2023-01-10T03:57:17.789Z,90.22
2023-01-10T03:59:21.072Z,91.13
2023-01-10T04:01:23.216Z,87.22
2023-01-10T04:03:25.000Z,93.10
2023-01-10T04:05:27.086Z,94.03
2023-01-10T04:07:28.822Z,90.97
2023-01-10T04:09:31.183Z,86.30
2023-01-10T04:11:32.943Z,98.32
2023-01-10T04:13:35.628Z,96.33
2023-01-10T04:15:37.338Z,94.88
2023-01-10T04:17:39.531Z,94.77
2023-01-10T04:19:41.971Z,95.32
2023-01-10T04:21:44.078Z,92.50
2023-01-10T04:23:45.817Z,91.93
2023-01-10T04:25:48.230Z,94.80
2023-01-10T04:27:50.756Z,89.63
2023-01-10T04:29:53.293Z,95.68
2023-01-10T04:31:55.026Z,89.67
2023-01-10T04:33:57.145Z,92.27
2023-01-10T04:35:58.874Z,99.82
2023-01-10T04:38:00.897Z,92.83
2023-01-10T04:40:02.620Z,101.07
2023-01-10T04:42:04.715Z,95.20
2023-01-10T04:44:06.569Z,99.22
2023-01-10T04:46:08.813Z,98.50
2023-01-10T04:48:10.542Z,91.05
2023-01-10T04:50:12.594Z,95.10
2023-01-10T04:52:14.254Z,93.55
2023-01-10T04:54:19.534Z,93.70
2023-01-10T04:56:22.033Z,96.35
2023-01-10T04:58:24.134Z,105.75
2023-01-10T05:00:25.990Z,101.38
2023-01-10T05:02:28.133Z,101.18
2023-01-10T05:04:29.874Z,102.38
2023-01-10T05:06:32.385Z,96.70
2023-01-10T05:08:34.096Z,98.37
2023-01-10T05:10:36.191Z,104.40
2023-01-10T05:12:38.040Z,103.57
2023-01-10T05:14:40.065Z,94.80
2023-01-10T05:16:41.849Z,95.63
2023-01-10T05:18:44.143Z,96.00
2023-01-10T05:20:45.788Z,90.15
2023-01-10T05:22:49.298Z,90.07
2023-01-10T05:24:51.046Z,95.18
2023-01-10T05:26:53.379Z,101.43
2023-01-10T05:28:55.058Z,98.60
2023-01-10T05:30:57.056Z,93.80
2023-01-10T05:32:58.708Z,88.20
2023-01-10T05:35:00.924Z,96.30
2023-01-10T05:37:02.590Z,92.72
2023-01-10T05:39:04.657Z,90.80
2023-01-10T05:41:06.621Z,95.80
2023-01-10T05:43:08.663Z,99.45
2023-01-10T05:45:10.650Z,96.97
2023-01-10T05:47:12.650Z,97.80
2023-01-10T05:49:14.414Z,100.22
2023-01-10T05:51:16.475Z,98.97
2023-01-10T05:53:18.766Z,90.35
2023-01-10T05:55:20.796Z,96.05
2023-01-10T05:57:24.612Z,94.13
2023-01-10T05:59:28.455Z,92.00
2023-01-10T06:01:30.482Z,96.38
2023-01-10T06:03:32.504Z,97.10
2023-01-10T06:05:34.198Z,94.60
2023-01-10T06:07:37.001Z,95.53
2023-01-10T06:09:38.689Z,94.60
2023-01-10T06:11:40.709Z,98.95
2023-01-10T06:13:42.388Z,89.80
2023-01-10T06:15:44.486Z,97.37
2023-01-10T06:17:46.288Z,90.43
2023-01-10T06:19:48.528Z,99.87
2023-01-10T06:21:50.297Z,99.45
2023-01-10T06:23:52.367Z,94.03
2023-01-10T06:25:54.080Z,98.82
2023-01-10T06:27:56.321Z,92.63
2023-01-10T06:29:59.653Z,96.50
2023-01-10T06:32:01.702Z,99.30
2023-01-10T06:34:03.443Z,92.28
2023-01-10T06:36:05.733Z,88.95
2023-01-10T06:38:07.728Z,90.55
2023-01-10T06:40:10.374Z,92.18
2023-01-10T06:42:12.391Z,91.32
2023-01-10T06:44:14.521Z,90.15
2023-01-10T06:46:18.178Z,90.22
2023-01-10T06:48:20.266Z,89.30
2023-01-10T06:50:22.860Z,88.70
2023-01-10T06:52:24.984Z,94.10
2023-01-10T06:54:27.266Z,90.95
2023-01-10T06:56:29.349Z,96.13
2023-01-10T06:58:31.211Z,89.65
2023-01-10T07:00:33.693Z,86.93
2023-01-10T07:02:35.639Z,85.63
2023-01-10T07:04:38.243Z,90.30
2023-01-10T07:06:40.180Z,93.00
2023-01-10T07:08:43.796Z,90.95
2023-01-10T07:10:45.600Z,91.82
2023-01-10T07:12:47.589Z,88.37
2023-01-10T07:14:49.286Z,93.82
2023-01-10T07:16:51.361Z,89.27
2023-01-10T07:18:53.134Z,88.35
2023-01-10T07:20:55.671Z,92.38
2023-01-10T07:22:58.476Z,87.78
2023-01-10T07:25:00.490Z,91.93
2023-01-10T07:27:03.409Z,89.32
2023-01-10T07:29:05.508Z,90.55
2023-01-10T07:31:07.300Z,89.32
2023-01-10T07:33:09.415Z,89.30
2023-01-10T07:35:11.168Z,91.75
2023-01-10T07:37:13.365Z,94.15
2023-01-10T07:39:15.084Z,90.88
2023-01-10T07:41:17.184Z,93.17
2023-01-10T07:43:18.871Z,86.78
2023-01-10T07:45:21.060Z,86.00
2023-01-10T07:47:22.709Z,93.57
2023-01-10T07:49:24.770Z,88.82
2023-01-10T07:51:26.539Z,93.00
2023-01-10T07:53:28.971Z,85.23
2023-01-10T07:55:30.667Z,88.93
2023-01-10T07:57:32.696Z,87.40
2023-01-10T07:59:34.439Z,89.53
2023-01-10T08:01:36.483Z,95.60
2023-01-10T08:03:38.404Z,84.28
2023-01-10T08:05:40.512Z,88.10
2023-01-10T08:07:42.190Z,79.55
2023-01-10T08:09:44.286Z,78.75
2023-01-10T08:11:45.940Z,82.88
2023-01-10T08:13:48.001Z,82.07
2023-01-10T08:15:52.849Z,75.50
2023-01-10T08:17:55.372Z,78.53
2023-01-10T08:19:57.079Z,75.95
2023-01-10T08:22:00.759Z,71.67
2023-01-10T08:24:02.498Z,73.82
2023-01-10T08:26:05.825Z,68.00
2023-01-10T08:28:07.702Z,75.88
2023-01-10T08:30:10.063Z,71.70
2023-01-10T08:32:11.992Z,75.10
2023-01-10T08:34:14.313Z,70.75
2023-01-10T08:36:19.829Z,72.75
2023-01-10T08:38:21.873Z,66.10
2023-01-10T08:40:23.623Z,64.40
2023-01-10T08:42:25.720Z,66.40
2023-01-10T08:44:27.556Z,72.68
2023-01-10T08:46:29.940Z,70.63
2023-01-10T08:48:31.725Z,60.72
2023-01-10T08:50:33.831Z,71.55
2023-01-10T08:52:35.683Z,69.35
2023-01-10T08:54:37.865Z,69.50
2023-01-10T08:56:40.322Z,63.63
2023-01-10T08:58:42.497Z,63.65
2023-01-10T09:00:45.151Z,67.13
2023-01-10T09:04:49.170Z,65.63
2023-01-10T09:06:51.179Z,62.90
2023-01-10T09:08:52.901Z,65.63
2023-01-10T09:10:54.984Z,63.37
2023-01-10T09:13:01.772Z,63.65
2023-01-10T09:15:04.214Z,61.00
2023-01-10T09:17:05.930Z,63.38
2023-01-10T09:19:07.995Z,63.60
2023-01-10T09:21:09.706Z,65.28
2023-01-10T09:23:17.456Z,64.37
2023-01-10T09:25:19.212Z,63.78
2023-01-10T09:27:21.393Z,59.67
2023-01-10T09:29:23.405Z,73.60
2023-01-10T09:31:25.591Z,57.88
2023-01-10T09:33:34.980Z,60.35
2023-01-10T09:35:43.759Z,57.83
2023-01-10T09:37:45.634Z,57.88
2023-01-10T09:39:47.888Z,56.47
2023-01-10T09:41:56.236Z,61.10
2023-01-10T09:44:01.561Z,57.17
2023-01-10T09:46:04.310Z,61.60
2023-01-10T09:48:09.244Z,64.30
2023-01-10T09:50:20.196Z,62.78
2023-01-10T09:52:23.870Z,58.78
2023-01-10T09:54:28.325Z,62.45
2023-01-10T09:56:31.122Z,56.97
2023-01-10T09:58:35.197Z,64.00
2023-01-10T10:00:42.910Z,59.03
2023-01-10T10:02:47.721Z,61.20
2023-01-10T10:04:57.791Z,59.65
2023-01-10T10:06:59.515Z,59.67
2023-01-10T10:09:03.615Z,62.10
2023-01-10T10:11:25.430Z,58.15
2023-01-10T10:13:36.824Z,52.88
2023-01-10T10:15:53.620Z,62.53
2023-01-10T10:18:16.831Z,58.50
2023-01-10T10:20:34.410Z,62.35
2023-01-10T10:22:54.015Z,55.58
2023-01-10T10:25:14.620Z,62.75
2023-01-10T10:27:36.945Z,57.00
2023-01-10T10:29:44.838Z,56.20
2023-01-10T10:32:06.545Z,57.15
2023-01-10T10:34:11.040Z,58.13
2023-01-10T10:36:18.929Z,60.80
2023-01-10T10:38:24.905Z,61.75
2023-01-10T10:40:29.879Z,65.00
2023-01-10T10:42:41.698Z,60.22
2023-01-10T10:44:46.751Z,59.88
2023-01-10T10:46:48.477Z,63.72
2023-01-10T10:48:53.538Z,62.13
2023-01-10T10:51:07.306Z,57.20
2023-01-10T10:53:09.896Z,64.20
2023-01-10T10:55:16.593Z,63.65
2023-01-10T10:57:19.379Z,58.83
2023-01-10T10:59:21.773Z,62.17
2023-01-10T11:01:26.374Z,58.13
2023-01-10T11:03:40.359Z,60.85
2023-01-10T11:05:44.721Z,60.72
2023-01-10T11:07:46.519Z,60.67
2023-01-10T11:09:59.994Z,60.03
2023-01-10T11:12:03.163Z,60.53
2023-01-10T11:14:06.835Z,64.68
2023-01-10T11:16:08.764Z,58.95
2023-01-10T11:18:12.470Z,57.85
2023-01-10T11:20:16.097Z,65.55
2023-01-10T11:22:17.827Z,62.58
2023-01-10T11:24:25.688Z,62.97
2023-01-10T11:26:29.939Z,62.22
2023-01-10T11:28:33.584Z,61.15
2023-01-10T11:30:36.867Z,63.95
2023-01-10T11:32:40.394Z,65.78
2023-01-10T11:34:50.494Z,64.55
2023-01-10T11:37:06.128Z,63.90
2023-01-10T11:39:14.355Z,61.67
2023-01-10T11:41:19.514Z,56.88
2023-01-10T11:43:38.392Z,60.53
2023-01-10T11:45:41.890Z,52.58
2023-01-10T11:47:45.725Z,56.22
2023-01-10T11:49:48.914Z,57.92
2023-01-10T11:51:51.979Z,55.88
2023-01-10T11:54:04.139Z,57.55
2023-01-10T11:56:07.001Z,57.33
2023-01-10T11:58:10.679Z,54.47
2023-01-10T12:00:12.971Z,53.90
2023-01-10T12:02:21.108Z,52.55
2023-01-10T12:04:23.482Z,54.22
2023-01-10T12:06:25.532Z,60.88
2023-01-10T12:08:34.666Z,49.22
2023-01-10T12:10:36.420Z,53.42
2023-01-10T12:12:38.915Z,48.97
2023-01-10T12:14:40.583Z,54.17
2023-01-10T12:16:42.278Z,49.90
2023-01-10T12:18:44.727Z,52.30
2023-01-10T12:20:48.164Z,53.97
2023-01-10T12:22:52.905Z,54.40
2023-01-10T12:24:55.760Z,58.95
2023-01-10T12:26:59.964Z,54.90
2023-01-10T12:29:11.751Z,55.95
2023-01-10T12:31:15.360Z,55.03
2023-01-10T12:33:23.795Z,61.97
2023-01-10T12:35:33.712Z,54.88
2023-01-10T12:37:45.658Z,55.67
2023-01-10T12:39:52.260Z,58.83
2023-01-10T12:42:15.744Z,50.78
2023-01-10T12:44:29.058Z,53.63
2023-01-10T12:47:04.654Z,53.47
2023-01-10T12:49:06.951Z,54.60
2023-01-10T12:51:11.281Z,56.78
2023-01-10T12:53:33.679Z,53.05
2023-01-10T12:55:43.065Z,50.10
2023-01-10T12:57:51.787Z,52.13
2023-01-10T12:59:55.048Z,47.88
2023-01-10T13:02:02.202Z,53.78
2023-01-10T13:04:06.985Z,56.88
2023-01-10T13:06:11.867Z,58.25
2023-01-10T13:08:15.796Z,55.92
2023-01-10T13:10:20.275Z,64.93
2023-01-10T13:12:24.418Z,61.90
2023-01-10T13:14:41.943Z,56.83
2023-01-10T13:16:50.425Z,56.88
2023-01-10T13:19:01.633Z,54.20
2023-01-10T13:21:15.643Z,55.97
2023-01-10T13:23:23.017Z,55.20
2023-01-10T13:25:35.993Z,56.03
2023-01-10T13:29:43.334Z,52.78
2023-01-10T13:31:45.534Z,56.78
2023-01-10T13:33:50.066Z,55.53
2023-01-10T13:35:53.037Z,54.95
2023-01-10T13:37:57.020Z,54.65
2023-01-10T13:40:00.408Z,51.53
2023-01-10T13:42:25.096Z,56.03
2023-01-10T13:44:52.045Z,58.70
2023-01-10T13:46:54.393Z,53.30
2023-01-10T13:49:00.402Z,52.50
2023-01-10T13:51:21.005Z,54.22
2023-01-10T13:53:28.467Z,52.63
2023-01-10T13:55:39.502Z,52.17
2023-01-10T13:57:51.722Z,51.10
2023-01-10T14:00:20.463Z,46.78
2023-01-10T14:02:29.765Z,52.13
2023-01-10T14:04:34.259Z,49.50
2023-01-10T14:06:41.284Z,52.55
2023-01-10T14:08:51.427Z,52.65
2023-01-10T14:11:07.433Z,49.05
2023-01-10T14:13:16.427Z,49.97
2023-01-10T14:15:34.359Z,52.28
2023-01-10T14:17:37.281Z,47.28
2023-01-10T14:19:39.887Z,46.22
2023-01-10T14:21:45.388Z,51.53
2023-01-10T14:23:51.567Z,46.50
2023-01-10T14:25:54.486Z,51.10
2023-01-10T14:27:58.595Z,43.88
2023-01-10T14:30:01.227Z,45.95
2023-01-10T14:32:18.832Z,44.88
2023-01-10T14:34:21.976Z,47.70
2023-01-10T14:36:25.668Z,47.88
2023-01-10T14:38:28.708Z,44.78
2023-01-10T14:40:30.743Z,47.47
2023-01-10T14:42:34.838Z,47.72
2023-01-10T14:44:50.905Z,46.65
2023-01-10T14:46:56.641Z,46.70
2023-01-10T14:49:00.980Z,48.13
2023-01-10T14:51:35.152Z,47.17
2023-01-10T14:53:37.162Z,41.97
2023-01-10T14:55:42.729Z,40.10
2023-01-10T14:57:58.484Z,42.70
2023-01-10T15:00:06.462Z,37.35
2023-01-10T15:02:21.795Z,41.83
2023-01-10T15:04:25.565Z,41.20
2023-01-10T15:06:27.808Z,41.53
2023-01-10T15:08:30.739Z,39.35
2023-01-10T15:10:35.249Z,46.10
2023-01-10T15:12:37.326Z,42.17
2023-01-10T15:14:39.623Z,42.20
2023-01-10T15:16:41.800Z,40.50
2023-01-10T15:18:45.758Z,43.47
2023-01-10T15:20:48.314Z,44.15
2023-01-10T15:22:55.438Z,45.30
2023-01-10T15:25:01.038Z,43.78
2023-01-10T15:27:04.507Z,40.28
2023-01-10T15:29:13.537Z,42.85
2023-01-10T15:31:19.129Z,43.47
2023-01-10T15:33:26.753Z,41.78
2023-01-10T15:35:36.212Z,45.83
2023-01-10T15:37:41.019Z,41.28
2023-01-10T15:39:46.016Z,39.83
2023-01-10T15:41:48.068Z,48.95
2023-01-10T15:43:52.072Z,48.15
2023-01-10T15:45:55.881Z,42.72
2023-01-10T15:48:03.800Z,47.88
2023-01-10T15:50:32.159Z,43.97
2023-01-10T15:52:34.211Z,50.55
2023-01-10T15:54:36.519Z,45.22
2023-01-10T15:56:40.633Z,57.13
2023-01-10T15:58:42.952Z,43.60
2023-01-10T16:00:45.982Z,51.60
2023-01-10T16:02:50.510Z,52.00
2023-01-10T16:04:56.321Z,54.53
2023-01-10T16:07:06.263Z,50.60
2023-01-10T16:09:08.937Z,53.08
2023-01-10T16:13:28.692Z,51.95
2023-01-10T16:15:31.819Z,55.22
2023-01-10T16:17:33.591Z,56.65
2023-01-10T16:19:35.997Z,54.95
2023-01-10T16:21:42.522Z,57.03
2023-01-10T16:23:46.643Z,55.05
2023-01-10T16:25:53.455Z,56.10
2023-01-10T16:27:56.422Z,57.63
2023-01-10T16:29:58.156Z,65.80
2023-01-10T16:32:00.192Z,56.63
2023-01-10T16:34:01.831Z,53.95
2023-01-10T16:36:04.413Z,55.65
2023-01-10T16:38:06.060Z,56.38
2023-01-10T16:40:16.061Z,60.30
2023-01-10T16:42:36.715Z,55.05
2023-01-10T16:44:38.763Z,58.58
2023-01-10T16:46:40.492Z,54.92
2023-01-10T16:48:42.595Z,53.63
2023-01-10T16:50:44.924Z,59.30
2023-01-10T16:52:46.934Z,58.60
2023-01-10T16:54:48.712Z,58.80
2023-01-10T16:56:50.797Z,59.22
2023-01-10T16:59:09.734Z,60.22
2023-01-10T17:01:17.986Z,60.78
2023-01-10T17:03:26.180Z,59.75
2023-01-10T17:05:29.429Z,61.55
2023-01-10T17:07:31.163Z,55.28
2023-01-10T17:09:33.817Z,60.03
2023-01-10T17:11:37.554Z,58.20
2023-01-10T17:13:41.390Z,61.28
2023-01-10T17:15:43.243Z,62.53
2023-01-10T17:17:45.262Z,67.00
2023-01-10T17:19:47.777Z,60.90
2023-01-10T17:21:50.037Z,58.88
2023-01-10T17:23:51.782Z,71.72
2023-01-10T17:26:01.019Z,64.00
2023-01-10T17:28:02.735Z,62.97
2023-01-10T17:30:05.069Z,62.40
2023-01-10T17:32:08.385Z,61.95
2023-01-10T17:34:10.570Z,58.08
2023-01-10T17:36:12.310Z,61.83
2023-01-10T17:38:16.432Z,61.05
2023-01-10T17:40:18.231Z,60.13
2023-01-10T17:42:20.311Z,61.05
2023-01-10T17:44:22.172Z,58.40
2023-01-10T17:46:24.881Z,60.33
2023-01-10T17:48:26.621Z,57.60
2023-01-10T17:50:28.630Z,59.37
2023-01-10T17:52:30.310Z,62.58
2023-01-10T17:54:36.313Z,62.97
2023-01-10T17:56:38.009Z,61.65
2023-01-10T17:58:40.130Z,73.50
2023-01-10T18:00:42.041Z,61.90
2023-01-10T18:02:43.756Z,60.42
2023-01-10T18:04:45.792Z,60.40
2023-01-10T18:06:47.537Z,54.92
2023-01-10T18:08:49.589Z,58.83
2023-01-10T18:10:51.395Z,62.10
2023-01-10T18:12:53.428Z,58.22
2023-01-10T18:14:55.145Z,57.20
2023-01-10T18:16:57.242Z,60.30
2023-01-10T18:18:59.296Z,57.35
2023-01-10T18:21:03.979Z,54.47
2023-01-10T18:23:21.183Z,59.47
2023-01-10T18:25:24.553Z,56.78
2023-01-10T18:29:28.376Z,55.20
2023-01-10T18:31:30.088Z,52.63
2023-01-10T18:33:32.252Z,56.17
2023-01-10T18:35:34.005Z,58.60
2023-01-10T18:37:35.772Z,57.33
2023-01-10T18:39:37.922Z,53.47
2023-01-10T18:41:39.642Z,50.72
2023-01-10T18:43:41.708Z,52.13
2023-01-10T18:45:44.343Z,51.38
2023-01-10T18:47:50.220Z,52.65
2023-01-10T18:49:51.912Z,54.58
2023-01-10T18:51:54.070Z,51.50
2023-01-10T18:53:55.895Z,53.47
2023-01-10T18:56:01.932Z,53.72
2023-01-10T18:58:03.609Z,52.83
2023-01-10T19:00:06.447Z,57.90
2023-01-10T19:02:10.380Z,58.33
2023-01-10T19:04:12.483Z,60.05
2023-01-10T19:06:16.712Z,78.53
2023-01-10T19:08:18.926Z,63.38
2023-01-10T19:10:20.804Z,61.75
2023-01-10T19:12:22.857Z,56.42
2023-01-10T19:14:24.621Z,54.70
2023-01-10T19:16:29.245Z,55.28
2023-01-10T19:18:30.985Z,53.30
2023-01-10T19:20:32.729Z,59.65
2023-01-10T19:22:34.926Z,57.93
2023-01-10T19:24:37.879Z,58.17
2023-01-10T19:26:39.916Z,53.30
2023-01-10T19:28:42.208Z,53.28
2023-01-10T19:30:46.917Z,57.10
2023-01-10T19:32:51.597Z,53.42
2023-01-10T19:34:53.364Z,55.65
2023-01-10T19:36:55.432Z,53.77
2023-01-10T19:38:58.395Z,55.40
2023-01-10T19:41:00.528Z,55.20
2023-01-10T19:43:03.176Z,57.97
2023-01-10T19:47:07.026Z,53.13
2023-01-10T19:49:10.898Z,54.17
2023-01-10T19:51:13.261Z,51.70
2023-01-10T19:53:15.056Z,56.90
2023-01-10T19:55:17.151Z,58.43
2023-01-10T19:57:18.856Z,59.67
2023-01-10T19:59:21.002Z,56.57
2023-01-10T20:01:23.643Z,56.35
2023-01-10T20:03:25.497Z,66.32
2023-01-10T20:05:27.673Z,55.08
2023-01-10T20:07:29.577Z,64.20
2023-01-10T20:09:33.519Z,63.38
2023-01-10T20:11:38.182Z,63.30
2023-01-10T20:13:49.271Z,68.00
2023-01-10T20:15:51.099Z,70.60
2023-01-10T20:17:53.181Z,67.22
2023-01-10T20:19:55.452Z,69.47
2023-01-10T20:21:57.595Z,68.97
2023-01-10T20:23:59.286Z,64.68
2023-01-10T20:26:22.127Z,65.53
2023-01-10T20:28:24.068Z,74.75
2023-01-10T20:30:26.171Z,68.20
2023-01-10T20:32:27.920Z,75.32
2023-01-10T20:34:30.074Z,69.07
2023-01-10T20:36:31.831Z,72.82
2023-01-10T20:38:35.050Z,75.03
2023-01-10T20:40:40.403Z,80.15
2023-01-10T20:42:42.403Z,83.20
2023-01-10T20:44:44.052Z,74.93
2023-01-10T20:46:46.163Z,77.80
2023-01-10T20:48:48.243Z,77.80
2023-01-10T20:50:50.646Z,80.05
2023-01-10T20:52:52.738Z,79.18
2023-01-10T20:54:54.804Z,80.05
2023-01-10T20:56:56.520Z,89.70
2023-01-10T20:58:58.884Z,88.53
2023-01-10T21:01:00.706Z,89.97
2023-01-10T21:03:02.479Z,90.68
2023-01-10T21:05:04.698Z,101.13
2023-01-10T21:07:06.895Z,85.10
2023-01-10T21:09:09.633Z,98.47
2023-01-10T21:11:12.492Z,91.68
2023-01-10T21:13:14.486Z,99.30
2023-01-10T21:15:16.592Z,98.32
2023-01-10T21:17:18.369Z,105.95
2023-01-10T21:19:20.689Z,96.00
2023-01-10T21:21:22.786Z,109.78
2023-01-10T21:23:25.616Z,92.07
2023-01-10T21:25:27.377Z,97.00
2023-01-10T21:27:31.356Z,118.75
2023-01-10T21:29:33.122Z,109.43
2023-01-10T21:31:35.262Z,103.40
2023-01-10T21:33:37.384Z,92.03
2023-01-10T21:35:39.787Z,89.65
2023-01-10T21:37:41.500Z,102.73
2023-01-10T21:39:43.547Z,82.50
2023-01-10T21:42:04.240Z,86.88
2023-01-10T21:44:07.099Z,109.65
2023-01-10T21:46:08.819Z,98.82
2023-01-10T21:48:10.868Z,94.22
2023-01-10T21:50:12.975Z,126.07
2023-01-10T21:52:15.033Z,109.82
2023-01-10T21:54:16.773Z,80.47
2023-01-10T21:56:18.910Z,95.88
2023-01-10T21:58:20.677Z,95.00
2023-01-10T22:00:22.960Z,80.53
2023-01-10T22:02:27.361Z,85.93
2023-01-10T22:04:29.540Z,104.13
2023-01-10T22:06:31.327Z,100.50
2023-01-10T22:08:33.400Z,105.45
2023-01-10T22:10:35.090Z,85.00
2023-01-10T22:12:37.274Z,115.67
2023-01-10T22:14:38.962Z,97.18
2023-01-10T22:16:41.030Z,89.30
2023-01-10T22:18:44.785Z,92.13
2023-01-10T22:20:47.609Z,105.35
2023-01-10T22:22:49.333Z,123.00
2023-01-10T22:24:51.395Z,88.73
2023-01-10T22:26:54.933Z,100.00
2023-01-10T22:28:56.933Z,109.10
2023-01-10T22:30:58.743Z,106.50
2023-01-10T22:33:00.423Z,70.15
2023-01-10T22:35:02.528Z,99.13
2023-01-10T22:37:04.422Z,102.68
2023-01-10T22:39:07.438Z,79.53
2023-01-10T22:41:10.568Z,118.25
2023-01-10T22:43:12.468Z,83.80
2023-01-10T22:45:14.517Z,82.07
2023-01-10T22:47:16.187Z,83.13
2023-01-10T22:49:18.432Z,87.23
2023-01-10T22:51:21.038Z,99.05
2023-01-10T22:55:24.825Z,84.63
2023-01-10T22:57:28.713Z,97.50
2023-01-10T22:59:33.360Z,87.57
2023-01-10T23:01:35.394Z,131.02
2023-01-10T23:03:37.150Z,97.68
2023-01-10T23:05:38.816Z,86.70
2023-01-10T23:07:40.877Z,108.28
2023-01-10T23:09:42.784Z,93.03
2023-01-10T23:11:44.768Z,100.30
2023-01-10T23:13:46.819Z,97.72
2023-01-10T23:15:58.830Z,99.90
2023-01-10T23:18:00.599Z,103.10
2023-01-10T23:20:03.599Z,75.07
2023-01-10T23:22:05.334Z,146.13
2023-01-10T23:24:07.642Z,95.57
2023-01-10T23:26:10.978Z,72.95
2023-01-10T23:28:13.028Z,85.70
2023-01-10T23:30:14.929Z,120.97
2023-01-10T23:32:16.962Z,85.32
2023-01-10T23:34:18.838Z,111.85
2023-01-10T23:36:22.088Z,122.45
2023-01-10T23:40:25.508Z,75.43
2023-01-10T23:42:27.736Z,77.00
2023-01-10T23:44:30.763Z,101.88
2023-01-10T23:46:32.937Z,154.88
2023-01-10T23:48:34.957Z,80.97
2023-01-10T23:50:37.319Z,183.65
2023-01-10T23:52:39.064Z,91.43
2023-01-10T23:54:41.094Z,95.07
2023-01-10T23:56:43.034Z,140.25
2023-01-10T23:58:45.075Z,127.82
